Date,TemperatureHighF,TemperatureAvgF,TemperatureLowF,DewpointHighF,DewpointAvgF,DewpointLowF,HumidityHigh,HumidityAvg,HumidityLow,PressureMaxIn,PressureMinIn,WindSpeedMaxMPH,WindSpeedAvgMPH,GustSpeedMaxMPH,PrecipitationSumIn
2013-1-1,26.3,22.4,18.3,18.8,12.7,9.0,74,66,50,30.20,30.07,6,2,17,0.00
2013-1-2,23.8,20.9,15.4,17.1,14.0,9.2,79,74,69,30.23,30.13,5,3,15,0.00
2013-1-3,28.2,21.5,12.9,23.7,14.9,3.0,88,76,62,30.22,30.14,6,4,15,0.00
2013-1-4,26.6,23.1,17.8,21.6,17.0,12.1,84,77,67,30.24,30.12,10,7,23,0.00
2013-1-5,34.6,27.5,19.5,29.2,22.1,16.5,92,80,65,30.31,30.06,6,3,17,0.01
2013-1-6,33.8,32.0,29.4,30.6,27.8,24.3,91,84,77,30.31,29.93,8,5,22,0.01
2013-1-7,34.0,29.3,23.9,23.4,21.9,20.3,87,74,63,30.41,30.17,10,4,26,0.00
2013-1-8,37.6,30.9,26.0,26.6,23.3,20.5,81,74,61,30.27,30.17,5,3,15,0.00
2013-1-9,44.6,38.2,30.7,32.5,27.5,22.4,78,66,44,30.47,30.06,13,7,29,0.01
2013-1-10,39.5,31.9,22.2,32.1,26.1,20.0,93,80,61,30.58,30.14,3,1,12,0.18
2013-1-11,55.3,45.7,34.9,51.0,42.7,32.5,100,90,75,30.11,29.77,10,4,21,0.19
2013-1-12,59.0,51.5,43.9,48.3,45.2,40.9,91,79,60,29.94,29.82,7,4,19,0.13
2013-1-13,42.6,34.6,26.6,39.9,33.4,23.3,98,95,87,30.11,29.78,9,4,24,0.73
2013-1-14,25.8,21.6,14.8,21.6,15.8,10.8,84,78,71,30.48,30.11,9,4,24,0.00
2013-1-15,28.4,19.8,10.9,18.9,14.2,7.8,91,79,63,30.48,30.19,2,0,6,0.01
2013-1-16,33.4,26.4,18.4,25.5,18.6,15.1,91,74,48,30.18,29.88,9,4,22,0.00
2013-1-17,35.3,28.3,19.5,27.9,19.8,7.9,91,71,52,30.36,30.01,8,4,27,0.01
2013-1-18,35.3,26.8,17.7,21.6,16.1,11.2,82,64,53,30.46,30.01,10,5,27,0.00
2013-1-19,46.1,40.6,35.5,33.8,28.9,22.2,74,63,55,30.00,29.66,11,8,25,0.00
2013-1-20,41.8,22.2,16.2,32.0,11.4,4.9,79,63,47,30.23,29.65,16,9,37,0.00